sensor_id;sensor_type;location;lat;lon;timestamp;P1;durP1;ratioP1;P2;durP2;ratioP2
21166;SDS011;10741;52.272;9.580;2022-09-23T00:00:34;2.03;;;1.17;;
21166;SDS011;10741;52.272;9.580;2022-09-23T00:03:00;2.83;;;1.10;;
21166;SDS011;10741;52.272;9.580;2022-09-23T00:05:27;1.67;;;1.23;;
21166;SDS011;10741;52.272;9.580;2022-09-23T00:07:53;2.93;;;1.20;;
21166;SDS011;10741;52.272;9.580;2022-09-23T00:10:20;1.87;;;1.43;;
21166;SDS011;10741;52.272;9.580;2022-09-23T00:12:49;2.40;;;1.27;;
21166;SDS011;10741;52.272;9.580;2022-09-23T00:15:16;1.63;;;1.30;;
21166;SDS011;10741;52.272;9.580;2022-09-23T00:17:42;1.63;;;1.30;;
21166;SDS011;10741;52.272;9.580;2022-09-23T00:20:08;1.30;;;1.20;;
21166;SDS011;10741;52.272;9.580;2022-09-23T00:22:35;1.43;;;1.20;;
21166;SDS011;10741;52.272;9.580;2022-09-23T00:25:05;2.93;;;1.40;;
21166;SDS011;10741;52.272;9.580;2022-09-23T00:27:32;1.23;;;1.13;;
21166;SDS011;10741;52.272;9.580;2022-09-23T00:29:59;1.27;;;1.10;;
21166;SDS011;10741;52.272;9.580;2022-09-23T00:32:25;2.07;;;1.10;;
21166;SDS011;10741;52.272;9.580;2022-09-23T00:34:51;1.10;;;1.00;;
21166;SDS011;10741;52.272;9.580;2022-09-23T00:37:17;1.60;;;1.10;;
21166;SDS011;10741;52.272;9.580;2022-09-23T00:39:44;1.13;;;1.03;;
21166;SDS011;10741;52.272;9.580;2022-09-23T00:42:12;1.10;;;1.00;;
21166;SDS011;10741;52.272;9.580;2022-09-23T00:44:47;1.67;;;1.20;;
21166;SDS011;10741;52.272;9.580;2022-09-23T00:49:44;1.70;;;1.43;;
21166;SDS011;10741;52.272;9.580;2022-09-23T00:52:15;1.90;;;1.40;;
21166;SDS011;10741;52.272;9.580;2022-09-23T00:54:44;1.57;;;1.17;;
21166;SDS011;10741;52.272;9.580;2022-09-23T00:57:13;1.30;;;1.20;;
21166;SDS011;10741;52.272;9.580;2022-09-23T00:59:41;3.13;;;1.13;;
21166;SDS011;10741;52.272;9.580;2022-09-23T01:02:07;1.87;;;1.10;;
21166;SDS011;10741;52.272;9.580;2022-09-23T01:04:35;1.43;;;1.27;;
21166;SDS011;10741;52.272;9.580;2022-09-23T01:07:01;3.27;;;1.50;;
21166;SDS011;10741;52.272;9.580;2022-09-23T01:09:26;1.53;;;1.20;;
21166;SDS011;10741;52.272;9.580;2022-09-23T01:11:59;2.83;;;1.30;;
21166;SDS011;10741;52.272;9.580;2022-09-23T01:17:39;1.30;;;1.20;;
21166;SDS011;10741;52.272;9.580;2022-09-23T01:26:12;2.23;;;1.20;;
21166;SDS011;10741;52.272;9.580;2022-09-23T01:29:26;2.70;;;1.63;;
21166;SDS011;10741;52.272;9.580;2022-09-23T01:32:15;2.00;;;1.33;;
21166;SDS011;10741;52.272;9.580;2022-09-23T01:35:11;3.93;;;1.33;;
21166;SDS011;10741;52.272;9.580;2022-09-23T01:40:33;2.90;;;1.50;;
21166;SDS011;10741;52.272;9.580;2022-09-23T01:43:21;1.87;;;1.30;;
21166;SDS011;10741;52.272;9.580;2022-09-23T01:45:54;1.57;;;1.13;;
21166;SDS011;10741;52.272;9.580;2022-09-23T01:51:33;3.27;;;1.27;;
21166;SDS011;10741;52.272;9.580;2022-09-23T01:57:14;1.70;;;1.10;;
21166;SDS011;10741;52.272;9.580;2022-09-23T01:59:47;1.10;;;1.00;;
21166;SDS011;10741;52.272;9.580;2022-09-23T02:02:35;1.43;;;1.33;;
21166;SDS011;10741;52.272;9.580;2022-09-23T02:05:12;2.70;;;1.17;;
21166;SDS011;10741;52.272;9.580;2022-09-23T02:08:01;1.37;;;1.27;;
21166;SDS011;10741;52.272;9.580;2022-09-23T02:10:33;2.53;;;1.43;;
21166;SDS011;10741;52.272;9.580;2022-09-23T02:13:09;3.13;;;1.10;;
21166;SDS011;10741;52.272;9.580;2022-09-23T02:15:48;0.90;;;0.90;;
21166;SDS011;10741;52.272;9.580;2022-09-23T02:18:21;2.00;;;1.50;;
21166;SDS011;10741;52.272;9.580;2022-09-23T02:20:54;3.17;;;1.30;;
21166;SDS011;10741;52.272;9.580;2022-09-23T02:26:15;2.33;;;1.60;;
21166;SDS011;10741;52.272;9.580;2022-09-23T02:31:45;1.50;;;1.40;;
21166;SDS011;10741;52.272;9.580;2022-09-23T02:34:29;1.40;;;1.30;;
21166;SDS011;10741;52.272;9.580;2022-09-23T02:37:23;2.10;;;1.40;;
21166;SDS011;10741;52.272;9.580;2022-09-23T02:45:29;1.80;;;1.40;;
21166;SDS011;10741;52.272;9.580;2022-09-23T02:47:57;3.63;;;1.30;;
21166;SDS011;10741;52.272;9.580;2022-09-23T02:50:36;1.57;;;1.47;;
21166;SDS011;10741;52.272;9.580;2022-09-23T02:53:02;2.53;;;1.93;;
21166;SDS011;10741;52.272;9.580;2022-09-23T02:55:30;1.60;;;1.50;;
21166;SDS011;10741;52.272;9.580;2022-09-23T02:57:57;1.90;;;1.60;;
21166;SDS011;10741;52.272;9.580;2022-09-23T03:00:26;1.70;;;1.60;;
21166;SDS011;10741;52.272;9.580;2022-09-23T03:05:55;3.90;;;1.47;;
21166;SDS011;10741;52.272;9.580;2022-09-23T03:08:31;5.73;;;1.70;;
21166;SDS011;10741;52.272;9.580;2022-09-23T03:11:06;4.70;;;1.60;;
21166;SDS011;10741;52.272;9.580;2022-09-23T03:19:34;1.73;;;1.60;;
21166;SDS011;10741;52.272;9.580;2022-09-23T03:22:30;1.87;;;1.57;;
21166;SDS011;10741;52.272;9.580;2022-09-23T03:25:00;1.67;;;1.53;;
21166;SDS011;10741;52.272;9.580;2022-09-23T03:27:31;2.60;;;1.57;;
21166;SDS011;10741;52.272;9.580;2022-09-23T03:29:58;1.87;;;1.60;;
21166;SDS011;10741;52.272;9.580;2022-09-23T03:32:25;3.37;;;1.90;;
21166;SDS011;10741;52.272;9.580;2022-09-23T03:34:53;1.53;;;1.30;;
21166;SDS011;10741;52.272;9.580;2022-09-23T03:37:31;2.00;;;1.60;;
21166;SDS011;10741;52.272;9.580;2022-09-23T03:40:11;2.10;;;1.60;;
21166;SDS011;10741;52.272;9.580;2022-09-23T03:42:39;2.83;;;1.67;;
21166;SDS011;10741;52.272;9.580;2022-09-23T03:45:07;2.17;;;1.40;;
21166;SDS011;10741;52.272;9.580;2022-09-23T03:47:37;3.07;;;1.40;;
21166;SDS011;10741;52.272;9.580;2022-09-23T03:50:03;1.67;;;1.57;;
21166;SDS011;10741;52.272;9.580;2022-09-23T03:52:29;3.43;;;1.40;;
21166;SDS011;10741;52.272;9.580;2022-09-23T03:54:56;1.63;;;1.10;;
21166;SDS011;10741;52.272;9.580;2022-09-23T03:57:23;2.67;;;1.50;;
21166;SDS011;10741;52.272;9.580;2022-09-23T03:59:49;2.43;;;1.33;;
21166;SDS011;10741;52.272;9.580;2022-09-23T04:02:16;2.90;;;1.23;;
21166;SDS011;10741;52.272;9.580;2022-09-23T04:04:43;3.93;;;1.40;;
21166;SDS011;10741;52.272;9.580;2022-09-23T04:07:09;1.20;;;1.00;;
21166;SDS011;10741;52.272;9.580;2022-09-23T04:09:36;2.60;;;1.53;;
21166;SDS011;10741;52.272;9.580;2022-09-23T04:12:02;2.67;;;1.50;;
21166;SDS011;10741;52.272;9.580;2022-09-23T04:14:29;3.03;;;1.20;;
21166;SDS011;10741;52.272;9.580;2022-09-23T04:16:55;2.57;;;1.30;;
21166;SDS011;10741;52.272;9.580;2022-09-23T04:19:20;2.23;;;1.20;;
21166;SDS011;10741;52.272;9.580;2022-09-23T04:21:46;1.30;;;1.20;;
21166;SDS011;10741;52.272;9.580;2022-09-23T04:24:12;2.30;;;1.60;;
21166;SDS011;10741;52.272;9.580;2022-09-23T04:26:39;1.87;;;1.30;;
21166;SDS011;10741;52.272;9.580;2022-09-23T04:29:06;2.93;;;1.33;;
21166;SDS011;10741;52.272;9.580;2022-09-23T04:31:32;3.07;;;1.30;;
21166;SDS011;10741;52.272;9.580;2022-09-23T04:33:58;2.40;;;1.20;;
21166;SDS011;10741;52.272;9.580;2022-09-23T04:36:24;2.43;;;1.20;;
21166;SDS011;10741;52.272;9.580;2022-09-23T04:38:51;1.43;;;1.10;;
21166;SDS011;10741;52.272;9.580;2022-09-23T04:41:17;1.30;;;1.20;;
21166;SDS011;10741;52.272;9.580;2022-09-23T04:43:44;2.13;;;1.20;;
21166;SDS011;10741;52.272;9.580;2022-09-23T04:46:10;1.40;;;1.20;;
21166;SDS011;10741;52.272;9.580;2022-09-23T04:48:38;1.73;;;1.30;;
21166;SDS011;10741;52.272;9.580;2022-09-23T04:53:38;1.27;;;1.13;;
21166;SDS011;10741;52.272;9.580;2022-09-23T04:56:07;2.23;;;1.10;;
21166;SDS011;10741;52.272;9.580;2022-09-23T04:58:35;1.90;;;1.20;;
21166;SDS011;10741;52.272;9.580;2022-09-23T05:01:16;3.63;;;1.10;;
21166;SDS011;10741;52.272;9.580;2022-09-23T05:03:44;1.20;;;1.10;;
21166;SDS011;10741;52.272;9.580;2022-09-23T05:06:11;1.93;;;1.40;;
21166;SDS011;10741;52.272;9.580;2022-09-23T05:08:38;2.00;;;1.20;;
21166;SDS011;10741;52.272;9.580;2022-09-23T05:11:05;3.10;;;1.70;;
21166;SDS011;10741;52.272;9.580;2022-09-23T05:13:32;1.93;;;1.27;;
21166;SDS011;10741;52.272;9.580;2022-09-23T05:16:04;1.17;;;1.00;;
21166;SDS011;10741;52.272;9.580;2022-09-23T05:18:35;2.77;;;1.10;;
21166;SDS011;10741;52.272;9.580;2022-09-23T05:21:05;1.83;;;1.23;;
21166;SDS011;10741;52.272;9.580;2022-09-23T05:23:31;3.00;;;1.20;;
21166;SDS011;10741;52.272;9.580;2022-09-23T05:25:59;1.90;;;1.20;;
21166;SDS011;10741;52.272;9.580;2022-09-23T05:28:26;2.10;;;1.30;;
21166;SDS011;10741;52.272;9.580;2022-09-23T05:31:05;3.00;;;1.20;;
21166;SDS011;10741;52.272;9.580;2022-09-23T05:33:35;1.70;;;1.20;;
21166;SDS011;10741;52.272;9.580;2022-09-23T05:36:01;1.40;;;1.23;;
21166;SDS011;10741;52.272;9.580;2022-09-23T05:38:28;3.07;;;1.10;;
21166;SDS011;10741;52.272;9.580;2022-09-23T05:40:55;1.80;;;1.27;;
21166;SDS011;10741;52.272;9.580;2022-09-23T05:43:28;1.47;;;1.10;;
21166;SDS011;10741;52.272;9.580;2022-09-23T05:46:05;4.63;;;1.23;;
21166;SDS011;10741;52.272;9.580;2022-09-23T05:48:35;1.20;;;1.00;;
21166;SDS011;10741;52.272;9.580;2022-09-23T05:51:01;1.43;;;1.33;;
21166;SDS011;10741;52.272;9.580;2022-09-23T05:53:29;1.40;;;1.10;;
21166;SDS011;10741;52.272;9.580;2022-09-23T05:55:55;1.30;;;1.20;;
21166;SDS011;10741;52.272;9.580;2022-09-23T05:58:21;4.73;;;1.30;;
21166;SDS011;10741;52.272;9.580;2022-09-23T06:00:48;2.70;;;1.10;;
21166;SDS011;10741;52.272;9.580;2022-09-23T06:03:15;2.57;;;1.30;;
21166;SDS011;10741;52.272;9.580;2022-09-23T06:05:43;1.07;;;0.97;;
21166;SDS011;10741;52.272;9.580;2022-09-23T06:08:09;2.30;;;1.00;;
21166;SDS011;10741;52.272;9.580;2022-09-23T06:10:39;1.40;;;1.20;;
21166;SDS011;10741;52.272;9.580;2022-09-23T06:13:06;2.80;;;1.10;;
21166;SDS011;10741;52.272;9.580;2022-09-23T06:15:33;2.00;;;1.20;;
21166;SDS011;10741;52.272;9.580;2022-09-23T06:17:59;2.53;;;1.07;;
21166;SDS011;10741;52.272;9.580;2022-09-23T06:20:25;1.90;;;1.47;;
21166;SDS011;10741;52.272;9.580;2022-09-23T06:22:51;1.40;;;1.30;;
21166;SDS011;10741;52.272;9.580;2022-09-23T06:25:17;2.90;;;1.40;;
21166;SDS011;10741;52.272;9.580;2022-09-23T06:27:43;1.27;;;1.10;;
21166;SDS011;10741;52.272;9.580;2022-09-23T06:30:18;1.40;;;1.27;;
21166;SDS011;10741;52.272;9.580;2022-09-23T06:32:48;1.30;;;1.10;;
21166;SDS011;10741;52.272;9.580;2022-09-23T06:35:18;2.70;;;1.17;;
21166;SDS011;10741;52.272;9.580;2022-09-23T06:37:45;1.77;;;1.20;;
21166;SDS011;10741;52.272;9.580;2022-09-23T06:40:11;1.43;;;1.20;;
21166;SDS011;10741;52.272;9.580;2022-09-23T06:42:38;2.23;;;1.20;;
21166;SDS011;10741;52.272;9.580;2022-09-23T06:45:05;2.87;;;1.77;;
21166;SDS011;10741;52.272;9.580;2022-09-23T06:47:31;2.23;;;1.20;;
21166;SDS011;10741;52.272;9.580;2022-09-23T06:49:57;1.80;;;1.20;;
21166;SDS011;10741;52.272;9.580;2022-09-23T06:52:23;2.87;;;1.37;;
21166;SDS011;10741;52.272;9.580;2022-09-23T06:54:49;1.10;;;1.00;;
21166;SDS011;10741;52.272;9.580;2022-09-23T06:57:14;2.63;;;1.10;;
21166;SDS011;10741;52.272;9.580;2022-09-23T06:59:40;1.67;;;1.30;;
21166;SDS011;10741;52.272;9.580;2022-09-23T07:02:08;3.60;;;1.90;;
21166;SDS011;10741;52.272;9.580;2022-09-23T07:04:35;1.90;;;1.30;;
21166;SDS011;10741;52.272;9.580;2022-09-23T07:07:01;4.37;;;1.67;;
21166;SDS011;10741;52.272;9.580;2022-09-23T07:09:26;3.67;;;1.30;;
21166;SDS011;10741;52.272;9.580;2022-09-23T07:11:53;1.80;;;1.40;;
21166;SDS011;10741;52.272;9.580;2022-09-23T07:14:18;1.47;;;1.37;;
21166;SDS011;10741;52.272;9.580;2022-09-23T07:16:47;4.23;;;1.40;;
21166;SDS011;10741;52.272;9.580;2022-09-23T07:19:13;2.87;;;1.23;;
21166;SDS011;10741;52.272;9.580;2022-09-23T07:21:39;1.23;;;1.13;;
21166;SDS011;10741;52.272;9.580;2022-09-23T07:24:05;2.17;;;1.10;;
21166;SDS011;10741;52.272;9.580;2022-09-23T07:26:31;2.80;;;1.10;;
21166;SDS011;10741;52.272;9.580;2022-09-23T07:28:58;1.70;;;1.10;;
21166;SDS011;10741;52.272;9.580;2022-09-23T07:31:29;1.57;;;1.20;;
21166;SDS011;10741;52.272;9.580;2022-09-23T07:33:56;2.00;;;1.03;;
21166;SDS011;10741;52.272;9.580;2022-09-23T07:36:23;1.00;;;0.93;;
21166;SDS011;10741;52.272;9.580;2022-09-23T07:38:52;2.20;;;1.20;;
21166;SDS011;10741;52.272;9.580;2022-09-23T07:41:21;1.60;;;1.23;;
21166;SDS011;10741;52.272;9.580;2022-09-23T07:43:48;1.60;;;1.33;;
21166;SDS011;10741;52.272;9.580;2022-09-23T07:46:15;2.17;;;1.13;;
21166;SDS011;10741;52.272;9.580;2022-09-23T07:48:42;1.10;;;1.00;;
21166;SDS011;10741;52.272;9.580;2022-09-23T07:51:09;1.97;;;1.10;;
21166;SDS011;10741;52.272;9.580;2022-09-23T07:53:37;3.67;;;1.33;;
21166;SDS011;10741;52.272;9.580;2022-09-23T07:56:03;1.30;;;1.20;;
21166;SDS011;10741;52.272;9.580;2022-09-23T07:58:33;2.87;;;1.07;;
21166;SDS011;10741;52.272;9.580;2022-09-23T08:01:06;1.73;;;1.43;;
21166;SDS011;10741;52.272;9.580;2022-09-23T08:03:34;2.03;;;1.33;;
21166;SDS011;10741;52.272;9.580;2022-09-23T08:06:10;2.53;;;1.33;;
21166;SDS011;10741;52.272;9.580;2022-09-23T08:08:38;5.90;;;1.40;;
21166;SDS011;10741;52.272;9.580;2022-09-23T08:11:07;2.57;;;1.07;;
21166;SDS011;10741;52.272;9.580;2022-09-23T08:13:34;2.40;;;1.10;;
21166;SDS011;10741;52.272;9.580;2022-09-23T08:16:00;2.80;;;1.63;;
21166;SDS011;10741;52.272;9.580;2022-09-23T08:18:26;2.53;;;1.20;;
21166;SDS011;10741;52.272;9.580;2022-09-23T08:20:53;2.07;;;1.37;;
21166;SDS011;10741;52.272;9.580;2022-09-23T08:23:19;1.70;;;1.30;;
21166;SDS011;10741;52.272;9.580;2022-09-23T08:25:45;1.83;;;1.40;;
21166;SDS011;10741;52.272;9.580;2022-09-23T08:28:15;2.10;;;1.50;;
21166;SDS011;10741;52.272;9.580;2022-09-23T08:30:47;4.23;;;1.70;;
21166;SDS011;10741;52.272;9.580;2022-09-23T08:33:13;1.63;;;1.50;;
21166;SDS011;10741;52.272;9.580;2022-09-23T08:35:40;3.53;;;1.87;;
21166;SDS011;10741;52.272;9.580;2022-09-23T08:38:06;2.37;;;1.60;;
21166;SDS011;10741;52.272;9.580;2022-09-23T08:40:35;1.67;;;1.57;;
21166;SDS011;10741;52.272;9.580;2022-09-23T08:43:05;1.70;;;1.50;;
21166;SDS011;10741;52.272;9.580;2022-09-23T08:45:32;2.20;;;1.43;;
21166;SDS011;10741;52.272;9.580;2022-09-23T08:48:02;1.87;;;1.50;;
21166;SDS011;10741;52.272;9.580;2022-09-23T08:50:52;2.60;;;1.87;;
21166;SDS011;10741;52.272;9.580;2022-09-23T08:55:54;2.73;;;1.47;;
21166;SDS011;10741;52.272;9.580;2022-09-23T09:03:46;2.87;;;1.60;;
21166;SDS011;10741;52.272;9.580;2022-09-23T09:06:18;1.90;;;1.70;;
21166;SDS011;10741;52.272;9.580;2022-09-23T09:08:51;1.83;;;1.60;;
21166;SDS011;10741;52.272;9.580;2022-09-23T09:11:21;1.80;;;1.70;;
21166;SDS011;10741;52.272;9.580;2022-09-23T09:14:12;2.73;;;1.90;;
21166;SDS011;10741;52.272;9.580;2022-09-23T09:22:18;2.33;;;1.60;;
21166;SDS011;10741;52.272;9.580;2022-09-23T09:25:38;2.00;;;1.90;;
21166;SDS011;10741;52.272;9.580;2022-09-23T09:28:26;1.93;;;1.70;;
21166;SDS011;10741;52.272;9.580;2022-09-23T09:30:56;2.10;;;1.90;;
21166;SDS011;10741;52.272;9.580;2022-09-23T09:33:31;2.13;;;1.70;;
21166;SDS011;10741;52.272;9.580;2022-09-23T09:36:18;2.17;;;1.80;;
21166;SDS011;10741;52.272;9.580;2022-09-23T09:38:54;2.57;;;2.20;;
21166;SDS011;10741;52.272;9.580;2022-09-23T09:41:24;1.80;;;1.70;;
21166;SDS011;10741;52.272;9.580;2022-09-23T09:43:52;2.73;;;2.13;;
21166;SDS011;10741;52.272;9.580;2022-09-23T09:49:21;2.50;;;1.97;;
21166;SDS011;10741;52.272;9.580;2022-09-23T09:57:48;2.93;;;1.80;;
21166;SDS011;10741;52.272;9.580;2022-09-23T10:02:54;2.67;;;1.90;;
21166;SDS011;10741;52.272;9.580;2022-09-23T10:05:34;2.97;;;1.67;;
21166;SDS011;10741;52.272;9.580;2022-09-23T10:08:23;2.07;;;1.60;;
21166;SDS011;10741;52.272;9.580;2022-09-23T10:11:15;3.63;;;2.10;;
21166;SDS011;10741;52.272;9.580;2022-09-23T10:14:03;2.47;;;1.90;;
21166;SDS011;10741;52.272;9.580;2022-09-23T10:16:36;2.27;;;1.77;;
21166;SDS011;10741;52.272;9.580;2022-09-23T10:19:16;2.67;;;1.70;;
21166;SDS011;10741;52.272;9.580;2022-09-23T10:21:49;1.67;;;1.57;;
21166;SDS011;10741;52.272;9.580;2022-09-23T10:24:25;3.03;;;1.63;;
21166;SDS011;10741;52.272;9.580;2022-09-23T10:26:57;4.63;;;1.80;;
21166;SDS011;10741;52.272;9.580;2022-09-23T10:29:30;2.80;;;1.70;;
21166;SDS011;10741;52.272;9.580;2022-09-23T10:34:46;2.63;;;1.87;;
21166;SDS011;10741;52.272;9.580;2022-09-23T10:37:23;3.13;;;2.00;;
21166;SDS011;10741;52.272;9.580;2022-09-23T10:39:56;3.60;;;2.10;;
21166;SDS011;10741;52.272;9.580;2022-09-23T10:46:04;3.40;;;2.27;;
21166;SDS011;10741;52.272;9.580;2022-09-23T11:06:24;2.60;;;1.60;;
21166;SDS011;10741;52.272;9.580;2022-09-23T11:25:59;1.73;;;1.37;;
21166;SDS011;10741;52.272;9.580;2022-09-23T11:39:29;3.33;;;2.10;;
21166;SDS011;10741;52.272;9.580;2022-09-23T11:42:04;2.50;;;1.80;;
21166;SDS011;10741;52.272;9.580;2022-09-23T11:44:41;2.93;;;1.60;;
21166;SDS011;10741;52.272;9.580;2022-09-23T11:47:35;2.03;;;1.83;;
21166;SDS011;10741;52.272;9.580;2022-09-23T11:56:00;2.13;;;2.00;;
21166;SDS011;10741;52.272;9.580;2022-09-23T11:58:40;2.23;;;1.90;;
21166;SDS011;10741;52.272;9.580;2022-09-23T12:01:19;4.40;;;2.10;;
21166;SDS011;10741;52.272;9.580;2022-09-23T12:03:58;2.90;;;1.97;;
21166;SDS011;10741;52.272;9.580;2022-09-23T12:06:31;3.00;;;2.00;;
21166;SDS011;10741;52.272;9.580;2022-09-23T12:09:09;2.37;;;2.17;;
21166;SDS011;10741;52.272;9.580;2022-09-23T12:11:49;3.47;;;2.03;;
21166;SDS011;10741;52.272;9.580;2022-09-23T12:14:31;2.73;;;1.90;;
21166;SDS011;10741;52.272;9.580;2022-09-23T12:26:10;2.13;;;1.90;;
21166;SDS011;10741;52.272;9.580;2022-09-23T12:28:42;2.00;;;1.67;;
21166;SDS011;10741;52.272;9.580;2022-09-23T12:31:11;4.13;;;2.10;;
21166;SDS011;10741;52.272;9.580;2022-09-23T12:33:40;2.27;;;1.90;;
21166;SDS011;10741;52.272;9.580;2022-09-23T12:36:14;2.30;;;2.10;;
21166;SDS011;10741;52.272;9.580;2022-09-23T12:38:45;2.80;;;2.33;;
21166;SDS011;10741;52.272;9.580;2022-09-23T12:43:54;3.33;;;2.03;;
21166;SDS011;10741;52.272;9.580;2022-09-23T12:46:26;2.57;;;1.97;;
21166;SDS011;10741;52.272;9.580;2022-09-23T12:51:21;3.53;;;2.13;;
21166;SDS011;10741;52.272;9.580;2022-09-23T13:03:48;3.17;;;1.90;;
21166;SDS011;10741;52.272;9.580;2022-09-23T13:06:37;2.17;;;1.97;;
21166;SDS011;10741;52.272;9.580;2022-09-23T13:09:09;4.20;;;2.37;;
21166;SDS011;10741;52.272;9.580;2022-09-23T13:11:41;2.57;;;2.03;;
21166;SDS011;10741;52.272;9.580;2022-09-23T13:14:09;3.07;;;2.03;;
21166;SDS011;10741;52.272;9.580;2022-09-23T13:16:40;2.33;;;2.10;;
21166;SDS011;10741;52.272;9.580;2022-09-23T13:22:04;2.97;;;1.83;;
21166;SDS011;10741;52.272;9.580;2022-09-23T13:24:41;2.47;;;2.10;;
21166;SDS011;10741;52.272;9.580;2022-09-23T13:27:16;2.30;;;2.10;;
21166;SDS011;10741;52.272;9.580;2022-09-23T13:29:55;5.17;;;1.90;;
21166;SDS011;10741;52.272;9.580;2022-09-23T13:32:29;1.87;;;1.77;;
21166;SDS011;10741;52.272;9.580;2022-09-23T13:34:59;2.00;;;1.70;;
21166;SDS011;10741;52.272;9.580;2022-09-23T13:37:43;2.80;;;2.13;;
21166;SDS011;10741;52.272;9.580;2022-09-23T13:40:20;2.07;;;1.87;;
21166;SDS011;10741;52.272;9.580;2022-09-23T13:42:57;2.27;;;1.83;;
21166;SDS011;10741;52.272;9.580;2022-09-23T13:45:24;2.63;;;1.80;;
21166;SDS011;10741;52.272;9.580;2022-09-23T13:47:52;4.17;;;2.70;;
21166;SDS011;10741;52.272;9.580;2022-09-23T13:50:24;4.90;;;2.30;;
21166;SDS011;10741;52.272;9.580;2022-09-23T13:52:54;3.43;;;2.43;;
21166;SDS011;10741;52.272;9.580;2022-09-23T13:55:25;2.50;;;2.13;;
21166;SDS011;10741;52.272;9.580;2022-09-23T13:57:57;2.03;;;1.90;;
21166;SDS011;10741;52.272;9.580;2022-09-23T14:00:24;2.40;;;2.20;;
21166;SDS011;10741;52.272;9.580;2022-09-23T14:02:50;2.17;;;1.90;;
21166;SDS011;10741;52.272;9.580;2022-09-23T14:05:23;3.10;;;2.27;;
21166;SDS011;10741;52.272;9.580;2022-09-23T14:07:51;3.50;;;2.30;;
21166;SDS011;10741;52.272;9.580;2022-09-23T14:10:20;2.30;;;2.10;;
21166;SDS011;10741;52.272;9.580;2022-09-23T14:12:49;3.70;;;1.90;;
21166;SDS011;10741;52.272;9.580;2022-09-23T14:15:16;4.53;;;2.07;;
21166;SDS011;10741;52.272;9.580;2022-09-23T14:17:44;2.47;;;1.67;;
21166;SDS011;10741;52.272;9.580;2022-09-23T14:20:13;2.13;;;1.77;;
21166;SDS011;10741;52.272;9.580;2022-09-23T14:22:41;3.27;;;1.90;;
21166;SDS011;10741;52.272;9.580;2022-09-23T14:25:16;2.33;;;1.87;;
21166;SDS011;10741;52.272;9.580;2022-09-23T14:27:43;3.90;;;2.20;;
21166;SDS011;10741;52.272;9.580;2022-09-23T14:30:14;2.00;;;1.80;;
21166;SDS011;10741;52.272;9.580;2022-09-23T14:32:43;1.53;;;1.43;;
21166;SDS011;10741;52.272;9.580;2022-09-23T14:35:17;2.73;;;1.80;;
21166;SDS011;10741;52.272;9.580;2022-09-23T14:37:55;2.40;;;2.03;;
21166;SDS011;10741;52.272;9.580;2022-09-23T14:40:51;2.00;;;1.90;;
21166;SDS011;10741;52.272;9.580;2022-09-23T14:43:38;3.03;;;2.00;;
21166;SDS011;10741;52.272;9.580;2022-09-23T14:46:15;3.13;;;1.83;;
21166;SDS011;10741;52.272;9.580;2022-09-23T14:52:10;2.93;;;2.00;;
21166;SDS011;10741;52.272;9.580;2022-09-23T14:57:01;2.13;;;1.93;;
21166;SDS011;10741;52.272;9.580;2022-09-23T14:59:46;1.67;;;1.53;;
21166;SDS011;10741;52.272;9.580;2022-09-23T15:02:37;1.97;;;1.87;;
21166;SDS011;10741;52.272;9.580;2022-09-23T15:07:40;2.70;;;2.13;;
21166;SDS011;10741;52.272;9.580;2022-09-23T15:10:08;4.53;;;2.00;;
21166;SDS011;10741;52.272;9.580;2022-09-23T15:12:44;2.07;;;1.70;;
21166;SDS011;10741;52.272;9.580;2022-09-23T15:15:14;2.07;;;1.80;;
21166;SDS011;10741;52.272;9.580;2022-09-23T15:17:41;2.30;;;1.60;;
21166;SDS011;10741;52.272;9.580;2022-09-23T15:20:15;3.47;;;1.77;;
21166;SDS011;10741;52.272;9.580;2022-09-23T15:22:51;2.47;;;1.60;;
21166;SDS011;10741;52.272;9.580;2022-09-23T15:25:51;2.43;;;1.73;;
21166;SDS011;10741;52.272;9.580;2022-09-23T15:28:16;3.07;;;1.60;;
21166;SDS011;10741;52.272;9.580;2022-09-23T15:30:42;1.87;;;1.67;;
21166;SDS011;10741;52.272;9.580;2022-09-23T15:33:10;2.33;;;1.60;;
21166;SDS011;10741;52.272;9.580;2022-09-23T15:35:37;1.73;;;1.63;;
21166;SDS011;10741;52.272;9.580;2022-09-23T15:38:12;3.60;;;1.70;;
21166;SDS011;10741;52.272;9.580;2022-09-23T15:40:38;2.60;;;2.10;;
21166;SDS011;10741;52.272;9.580;2022-09-23T15:43:20;2.17;;;1.97;;
21166;SDS011;10741;52.272;9.580;2022-09-23T15:48:20;2.50;;;1.47;;
21166;SDS011;10741;52.272;9.580;2022-09-23T15:50:49;1.57;;;1.37;;
21166;SDS011;10741;52.272;9.580;2022-09-23T15:53:22;1.80;;;1.70;;
21166;SDS011;10741;52.272;9.580;2022-09-23T15:55:50;3.77;;;1.80;;
21166;SDS011;10741;52.272;9.580;2022-09-23T15:58:19;2.47;;;1.53;;
21166;SDS011;10741;52.272;9.580;2022-09-23T16:00:47;1.73;;;1.40;;
21166;SDS011;10741;52.272;9.580;2022-09-23T16:03:16;2.50;;;1.70;;
21166;SDS011;10741;52.272;9.580;2022-09-23T16:05:44;1.90;;;1.30;;
21166;SDS011;10741;52.272;9.580;2022-09-23T16:08:12;3.77;;;1.53;;
21166;SDS011;10741;52.272;9.580;2022-09-23T16:10:39;1.73;;;1.60;;
21166;SDS011;10741;52.272;9.580;2022-09-23T16:13:06;1.70;;;1.50;;
21166;SDS011;10741;52.272;9.580;2022-09-23T16:15:35;2.23;;;1.90;;
21166;SDS011;10741;52.272;9.580;2022-09-23T16:18:03;3.10;;;1.90;;
21166;SDS011;10741;52.272;9.580;2022-09-23T16:20:30;3.43;;;2.23;;
21166;SDS011;10741;52.272;9.580;2022-09-23T16:23:00;4.83;;;2.30;;
21166;SDS011;10741;52.272;9.580;2022-09-23T16:25:28;2.40;;;2.00;;
21166;SDS011;10741;52.272;9.580;2022-09-23T16:27:58;4.60;;;2.30;;
21166;SDS011;10741;52.272;9.580;2022-09-23T16:30:24;2.07;;;1.87;;
21166;SDS011;10741;52.272;9.580;2022-09-23T16:32:51;1.90;;;1.73;;
21166;SDS011;10741;52.272;9.580;2022-09-23T16:35:20;2.90;;;1.90;;
21166;SDS011;10741;52.272;9.580;2022-09-23T16:37:50;2.07;;;1.80;;
21166;SDS011;10741;52.272;9.580;2022-09-23T16:40:17;2.80;;;2.03;;
21166;SDS011;10741;52.272;9.580;2022-09-23T16:42:47;3.97;;;1.90;;
21166;SDS011;10741;52.272;9.580;2022-09-23T16:45:16;2.53;;;2.20;;
21166;SDS011;10741;52.272;9.580;2022-09-23T16:47:47;2.17;;;1.57;;
21166;SDS011;10741;52.272;9.580;2022-09-23T16:50:19;2.50;;;1.80;;
21166;SDS011;10741;52.272;9.580;2022-09-23T16:52:46;2.77;;;2.03;;
21166;SDS011;10741;52.272;9.580;2022-09-23T16:55:12;2.17;;;1.97;;
21166;SDS011;10741;52.272;9.580;2022-09-23T16:57:39;2.60;;;2.10;;
21166;SDS011;10741;52.272;9.580;2022-09-23T17:00:06;3.23;;;2.13;;
21166;SDS011;10741;52.272;9.580;2022-09-23T17:02:54;2.67;;;1.83;;
21166;SDS011;10741;52.272;9.580;2022-09-23T17:05:38;2.70;;;1.90;;
21166;SDS011;10741;52.272;9.580;2022-09-23T17:08:04;2.10;;;1.90;;
21166;SDS011;10741;52.272;9.580;2022-09-23T17:10:31;2.50;;;2.23;;
21166;SDS011;10741;52.272;9.580;2022-09-23T17:12:57;2.47;;;2.17;;
21166;SDS011;10741;52.272;9.580;2022-09-23T17:15:24;2.63;;;2.00;;
21166;SDS011;10741;52.272;9.580;2022-09-23T17:17:50;2.97;;;2.60;;
21166;SDS011;10741;52.272;9.580;2022-09-23T17:20:16;2.47;;;2.20;;
21166;SDS011;10741;52.272;9.580;2022-09-23T17:22:42;3.00;;;2.37;;
21166;SDS011;10741;52.272;9.580;2022-09-23T17:25:08;2.67;;;2.27;;
21166;SDS011;10741;52.272;9.580;2022-09-23T17:27:33;4.43;;;2.57;;
21166;SDS011;10741;52.272;9.580;2022-09-23T17:30:01;6.00;;;3.80;;
21166;SDS011;10741;52.272;9.580;2022-09-23T17:32:27;5.60;;;3.40;;
21166;SDS011;10741;52.272;9.580;2022-09-23T17:34:52;4.03;;;3.07;;
21166;SDS011;10741;52.272;9.580;2022-09-23T17:37:18;4.87;;;3.23;;
21166;SDS011;10741;52.272;9.580;2022-09-23T17:39:44;4.77;;;3.10;;
21166;SDS011;10741;52.272;9.580;2022-09-23T17:42:10;10.20;;;6.30;;
21166;SDS011;10741;52.272;9.580;2022-09-23T17:44:36;8.50;;;5.23;;
21166;SDS011;10741;52.272;9.580;2022-09-23T17:47:02;6.07;;;4.30;;
21166;SDS011;10741;52.272;9.580;2022-09-23T17:49:29;6.70;;;4.57;;
21166;SDS011;10741;52.272;9.580;2022-09-23T17:51:58;7.60;;;5.53;;
21166;SDS011;10741;52.272;9.580;2022-09-23T17:54:30;16.37;;;13.67;;